createdAt,value
2023-08-08T00:01:30.680Z,98451.16
2023-08-08T00:03:57.991Z,98443.34
2023-08-08T00:06:24.864Z,98449.16
2023-08-08T00:08:52.068Z,98450.19
2023-08-08T00:11:18.970Z,98443.34
2023-08-08T00:13:46.236Z,98450.13
2023-08-08T00:16:13.086Z,98450.13
2023-08-08T00:18:40.296Z,98447.94
2023-08-08T00:21:07.170Z,98441.81
2023-08-08T00:23:34.313Z,98453.53
2023-08-08T00:26:01.188Z,98451.97
2023-08-08T00:28:28.358Z,98452.69
2023-08-08T00:30:55.194Z,98450.44
2023-08-08T00:33:22.324Z,98456.03
2023-08-08T00:35:49.148Z,98468.63
2023-08-08T00:38:17.630Z,98457.38
2023-08-08T00:40:44.441Z,98461.63
2023-08-08T00:43:11.594Z,98454.81
2023-08-08T00:45:38.935Z,98456.66
2023-08-08T00:48:06.365Z,98458.38
2023-08-08T00:50:33.199Z,98460.25
2023-08-08T00:53:00.311Z,98464.97
2023-08-08T00:55:27.179Z,98461.41
2023-08-08T00:57:54.292Z,98465.84
2023-08-08T01:00:21.175Z,98471.91
2023-08-08T01:02:48.522Z,98466.47
2023-08-08T01:05:15.631Z,98475.31
2023-08-08T01:07:53.284Z,98471.38
2023-08-08T01:10:24.067Z,98477.81
2023-08-08T01:12:58.919Z,98462.53
2023-08-08T01:15:25.902Z,98474.41
2023-08-08T01:17:53.056Z,98475.25
2023-08-08T01:20:20.086Z,98478.31
2023-08-08T01:22:56.667Z,98482.50
2023-08-08T01:25:23.548Z,98479.41
2023-08-08T01:27:50.643Z,98471.41
2023-08-08T01:30:17.594Z,98476.69
2023-08-08T01:32:44.794Z,98476.00
2023-08-08T01:35:11.692Z,98474.44
2023-08-08T01:37:53.892Z,98475.47
2023-08-08T01:40:20.984Z,98479.88
2023-08-08T01:42:49.104Z,98481.75
2023-08-08T01:45:19.083Z,98477.66
2023-08-08T01:47:52.892Z,98476.94
2023-08-08T01:50:19.765Z,98474.56
2023-08-08T01:52:46.888Z,98484.53
2023-08-08T01:55:13.806Z,98482.69
2023-08-08T01:57:40.943Z,98473.28
2023-08-08T02:00:09.145Z,98478.72
2023-08-08T02:02:36.947Z,98484.63
2023-08-08T02:05:04.178Z,98485.50
2023-08-08T02:07:31.305Z,98490.22
2023-08-08T02:09:58.283Z,98493.66
2023-08-08T02:12:25.424Z,98492.91
2023-08-08T02:14:52.286Z,98483.94
2023-08-08T02:17:19.795Z,98479.69
2023-08-08T02:19:46.657Z,98485.13
2023-08-08T02:22:13.749Z,98481.69
2023-08-08T02:24:40.656Z,98487.44
2023-08-08T02:27:07.873Z,98483.41
2023-08-08T02:29:34.722Z,98490.31
2023-08-08T02:32:02.184Z,98486.19
2023-08-08T02:34:29.317Z,98485.34
2023-08-08T02:36:56.446Z,98494.63
2023-08-08T02:39:23.288Z,98495.34
2023-08-08T02:41:50.428Z,98487.91
2023-08-08T02:44:17.344Z,98494.63
2023-08-08T02:46:44.541Z,98490.22
2023-08-08T02:49:11.368Z,98482.09
2023-08-08T02:51:38.468Z,98487.81
2023-08-08T02:54:05.338Z,98491.69
2023-08-08T02:56:32.461Z,98495.56
2023-08-08T02:58:59.516Z,98507.44
2023-08-08T03:01:26.814Z,98519.69
2023-08-08T03:03:53.720Z,98519.16
2023-08-08T03:06:21.241Z,98521.28
2023-08-08T03:08:48.105Z,98521.28
2023-08-08T03:11:15.228Z,98515.00
2023-08-08T03:13:42.080Z,98510.03
2023-08-08T03:16:09.267Z,98519.88
2023-08-08T03:18:36.162Z,98517.31
2023-08-08T03:21:03.455Z,98526.31
2023-08-08T03:23:30.281Z,98527.31
2023-08-08T03:25:57.464Z,98523.03
2023-08-08T03:28:24.284Z,98527.47
2023-08-08T03:30:51.390Z,98528.88
2023-08-08T03:33:18.249Z,98524.91
2023-08-08T03:35:45.395Z,98525.38
2023-08-08T03:38:12.317Z,98528.63
2023-08-08T03:40:39.567Z,98520.94
2023-08-08T03:43:06.949Z,98523.88
2023-08-08T03:45:34.096Z,98534.75
2023-08-08T03:48:01.026Z,98538.78
2023-08-08T03:50:28.217Z,98544.75
2023-08-08T03:52:55.062Z,98535.06
2023-08-08T03:55:22.233Z,98543.22
2023-08-08T03:57:49.124Z,98553.50
2023-08-08T04:00:16.850Z,98541.66
2023-08-08T04:02:43.862Z,98547.66
2023-08-08T04:05:11.045Z,98551.66
2023-08-08T04:07:37.923Z,98551.41
2023-08-08T04:10:05.645Z,98555.22
2023-08-08T04:12:33.984Z,98557.38
2023-08-08T04:15:01.256Z,98562.81
2023-08-08T04:17:28.295Z,98566.50
2023-08-08T04:19:55.693Z,98572.97
2023-08-08T04:22:22.508Z,98579.94
2023-08-08T04:24:49.638Z,98576.13
2023-08-08T04:27:16.478Z,98590.38
2023-08-08T04:29:43.617Z,98598.97
2023-08-08T04:32:10.506Z,98590.13
2023-08-08T04:34:37.614Z,98595.25
2023-08-08T04:37:04.784Z,98598.97
2023-08-08T04:39:31.937Z,98602.41
2023-08-08T04:41:58.745Z,98600.84
2023-08-08T04:44:25.904Z,98602.00
2023-08-08T04:46:52.776Z,98602.16
2023-08-08T04:49:20.116Z,98604.88
2023-08-08T04:51:46.993Z,98609.41
2023-08-08T04:54:14.141Z,98614.69
2023-08-08T04:56:40.972Z,98621.00
2023-08-08T04:59:08.259Z,98608.28
2023-08-08T05:01:35.112Z,98619.28
2023-08-08T05:04:02.259Z,98611.13
2023-08-08T05:06:29.143Z,98607.59
2023-08-08T05:08:57.895Z,98606.97
2023-08-08T05:11:25.011Z,98606.25
2023-08-08T05:13:52.101Z,98623.53
2023-08-08T05:16:19.542Z,98622.53
2023-08-08T05:18:46.774Z,98626.84
2023-08-08T05:21:13.603Z,98628.53
2023-08-08T05:23:40.808Z,98632.81
2023-08-08T05:26:07.681Z,98635.38
2023-08-08T05:28:34.802Z,98635.38
2023-08-08T05:31:02.255Z,98624.06
2023-08-08T05:33:31.334Z,98623.22
2023-08-08T05:35:58.406Z,98623.91
2023-08-08T05:38:25.552Z,98629.44
2023-08-08T05:40:52.362Z,98623.72
2023-08-08T05:43:19.628Z,98612.00
2023-08-08T05:45:46.565Z,98630.47
2023-08-08T05:48:14.138Z,98629.44
2023-08-08T05:50:41.238Z,98641.72
2023-08-08T05:53:08.537Z,98639.53
2023-08-08T05:55:35.340Z,98643.81
2023-08-08T05:58:02.530Z,98637.22
2023-08-08T06:00:29.453Z,98634.22
2023-08-08T06:02:57.216Z,98638.31
2023-08-08T06:05:27.213Z,98644.16
2023-08-08T06:07:56.084Z,98646.28
2023-08-08T06:10:23.431Z,98646.97
2023-08-08T06:12:50.597Z,98640.38
2023-08-08T06:15:17.539Z,98637.19
2023-08-08T06:17:44.704Z,98640.28
2023-08-08T06:20:11.738Z,98644.44
2023-08-08T06:22:40.141Z,98637.66
2023-08-08T06:25:07.429Z,98630.25
2023-08-08T06:27:34.575Z,98628.59
2023-08-08T06:30:01.370Z,98629.84
2023-08-08T06:32:28.891Z,98632.78
2023-08-08T06:34:56.318Z,98632.19
2023-08-08T06:37:23.435Z,98634.44
2023-08-08T06:39:50.268Z,98632.25
2023-08-08T06:42:17.425Z,98635.66
2023-08-08T06:44:44.962Z,98634.50
2023-08-08T06:47:13.373Z,98624.88
2023-08-08T06:49:40.607Z,98632.44
2023-08-08T06:52:07.939Z,98630.41
2023-08-08T06:54:34.849Z,98636.75
2023-08-08T06:57:03.160Z,98628.13
2023-08-08T06:59:30.564Z,98630.03
2023-08-08T07:01:57.961Z,98632.44
2023-08-08T07:04:24.847Z,98637.09
2023-08-08T07:06:52.089Z,98634.69
2023-08-08T07:09:19.566Z,98639.34
2023-08-08T07:11:47.116Z,98631.53
2023-08-08T07:14:13.983Z,98634.78
2023-08-08T07:16:41.212Z,98641.44
2023-08-08T07:19:08.050Z,98637.78
2023-08-08T07:21:35.233Z,98626.88
2023-08-08T07:24:04.128Z,98636.94
2023-08-08T07:26:31.305Z,98636.47
2023-08-08T07:28:58.138Z,98627.47
2023-08-08T07:31:25.473Z,98625.78
2023-08-08T07:33:52.335Z,98622.28
2023-08-08T07:36:19.444Z,98620.69
2023-08-08T07:38:46.285Z,98619.22
2023-08-08T07:41:13.446Z,98619.25
2023-08-08T07:43:40.306Z,98616.41
2023-08-08T07:46:07.450Z,98622.19
2023-08-08T07:48:34.294Z,98621.53
2023-08-08T07:51:01.410Z,98625.13
2023-08-08T07:53:28.293Z,98617.13
2023-08-08T07:55:55.465Z,98617.81
2023-08-08T07:58:24.351Z,98622.47
2023-08-08T08:00:53.167Z,98617.69
2023-08-08T08:03:21.024Z,98607.13
2023-08-08T08:05:48.302Z,98608.19
2023-08-08T08:08:15.147Z,98620.28
2023-08-08T08:10:42.298Z,98612.09
2023-08-08T08:13:09.227Z,98618.75
2023-08-08T08:15:36.752Z,98605.09
2023-08-08T08:18:03.879Z,98603.59
2023-08-08T08:20:31.102Z,98600.91
2023-08-08T08:22:58.015Z,98604.31
2023-08-08T08:25:25.195Z,98600.72
2023-08-08T08:27:52.069Z,98591.69
2023-08-08T08:30:20.114Z,98594.91
2023-08-08T08:32:47.115Z,98604.13
2023-08-08T08:35:15.032Z,98594.41
2023-08-08T08:37:41.916Z,98600.88
2023-08-08T08:40:10.097Z,98592.16
2023-08-08T08:42:37.040Z,98597.63
2023-08-08T08:45:05.871Z,98599.31
2023-08-08T08:47:33.078Z,98599.13
2023-08-08T08:50:01.350Z,98597.09
2023-08-08T08:52:28.212Z,98597.78
2023-08-08T08:54:55.375Z,98593.66
2023-08-08T08:57:25.345Z,98591.41
2023-08-08T08:59:52.971Z,98598.28
2023-08-08T09:02:20.009Z,98595.53
2023-08-08T09:04:47.171Z,98598.41
2023-08-08T09:07:14.336Z,98586.09
2023-08-08T09:09:43.970Z,98598.41
2023-08-08T09:12:11.215Z,98596.69
2023-08-08T09:14:41.105Z,98601.28
2023-08-08T09:17:14.816Z,98602.47
2023-08-08T09:19:45.630Z,98604.19
2023-08-08T09:22:13.737Z,98604.50
2023-08-08T09:24:41.563Z,98607.53
2023-08-08T09:27:09.085Z,98615.03
2023-08-08T09:29:36.339Z,98619.44
2023-08-08T09:32:09.554Z,98623.00
2023-08-08T09:34:36.760Z,98614.28
2023-08-08T09:37:04.549Z,98621.28
2023-08-08T09:39:31.763Z,98618.88
2023-08-08T09:41:58.626Z,98616.97
2023-08-08T09:44:27.737Z,98610.50
2023-08-08T09:46:54.609Z,98617.47
2023-08-08T09:49:22.930Z,98616.13
2023-08-08T09:51:52.778Z,98622.25
2023-08-08T09:54:19.898Z,98622.03
2023-08-08T09:56:46.787Z,98615.03
2023-08-08T09:59:14.080Z,98613.84
2023-08-08T10:01:44.304Z,98605.47
2023-08-08T10:04:13.132Z,98604.25
2023-08-08T10:06:40.074Z,98606.97
2023-08-08T10:09:08.271Z,98604.69
2023-08-08T10:11:35.267Z,98599.34
2023-08-08T10:14:03.409Z,98610.13
2023-08-08T10:16:33.165Z,98602.13
2023-08-08T10:19:01.075Z,98607.91
2023-08-08T10:21:29.984Z,98612.03
2023-08-08T10:24:08.170Z,98605.16
2023-08-08T10:26:35.538Z,98602.72
2023-08-08T10:29:02.755Z,98603.91
2023-08-08T10:31:34.806Z,98600.22
2023-08-08T10:34:06.123Z,98607.66
2023-08-08T10:36:49.258Z,98595.81
2023-08-08T10:39:18.348Z,98597.31
2023-08-08T10:41:51.610Z,98602.53
2023-08-08T10:44:25.168Z,98600.28
2023-08-08T10:46:53.417Z,98609.38
2023-08-08T10:49:20.678Z,98599.31
2023-08-08T10:51:48.355Z,98607.00
2023-08-08T10:54:16.920Z,98612.22
2023-08-08T10:56:57.016Z,98604.78
2023-08-08T10:59:26.197Z,98607.81
2023-08-08T11:01:53.662Z,98615.66
2023-08-08T11:04:22.655Z,98619.78
2023-08-08T11:06:51.340Z,98616.03
2023-08-08T11:09:19.116Z,98616.19
2023-08-08T11:11:46.165Z,98611.28
2023-08-08T11:14:20.688Z,98617.28
2023-08-08T11:16:48.394Z,98627.50
2023-08-08T11:19:17.175Z,98621.84
2023-08-08T11:21:45.305Z,98625.72
2023-08-08T11:24:12.922Z,98619.06
2023-08-08T11:26:41.449Z,98620.06
2023-08-08T11:29:08.656Z,98619.22
2023-08-08T11:31:36.037Z,98622.16
2023-08-08T11:34:03.484Z,98616.69
2023-08-08T11:36:31.047Z,98619.22
2023-08-08T11:38:58.810Z,98621.13
2023-08-08T11:41:27.289Z,98628.78
2023-08-08T11:43:54.534Z,98633.22
2023-08-08T11:46:24.379Z,98627.75
2023-08-08T11:48:51.708Z,98629.44
2023-08-08T11:51:18.609Z,98630.66
2023-08-08T11:53:50.990Z,98632.38
2023-08-08T11:56:19.187Z,98633.69
2023-08-08T11:58:47.622Z,98633.22
2023-08-08T12:01:15.493Z,98625.66
2023-08-08T12:03:42.757Z,98629.28
2023-08-08T12:06:16.318Z,98624.16
2023-08-08T12:08:45.461Z,98620.19
2023-08-08T12:11:12.928Z,98625.78
2023-08-08T12:13:41.412Z,98625.78
2023-08-08T12:16:16.712Z,98612.31
2023-08-08T12:18:45.474Z,98617.06
2023-08-08T12:21:12.386Z,98621.88
2023-08-08T12:23:39.594Z,98617.91
2023-08-08T12:26:06.630Z,98610.38
2023-08-08T12:28:33.908Z,98610.66
2023-08-08T12:31:01.297Z,98613.00
2023-08-08T12:33:28.684Z,98616.13
2023-08-08T12:35:55.667Z,98608.22
2023-08-08T12:38:23.242Z,98605.84
2023-08-08T12:40:50.104Z,98601.84
2023-08-08T12:43:20.081Z,98604.69
2023-08-08T12:45:47.296Z,98599.69
2023-08-08T12:48:14.481Z,98608.50
2023-08-08T12:50:41.977Z,98603.28
2023-08-08T12:53:09.238Z,98604.69
2023-08-08T12:55:36.360Z,98598.47
2023-08-08T12:58:04.167Z,98590.72
2023-08-08T13:00:31.069Z,98596.19
2023-08-08T13:02:58.863Z,98584.66
2023-08-08T13:05:26.877Z,98593.16
2023-08-08T13:07:54.238Z,98593.63
2023-08-08T13:10:21.308Z,98596.94
2023-08-08T13:12:49.222Z,98596.56
2023-08-08T13:15:16.250Z,98590.03
2023-08-08T13:17:43.557Z,98588.97
2023-08-08T13:20:11.203Z,98577.00
2023-08-08T13:22:38.799Z,98585.88
2023-08-08T13:25:06.527Z,98585.50
2023-08-08T13:27:33.822Z,98583.69
2023-08-08T13:30:00.875Z,98588.69
2023-08-08T13:32:28.236Z,98583.13
2023-08-08T13:34:55.143Z,98579.09
2023-08-08T13:37:22.369Z,98575.91
2023-08-08T13:39:49.280Z,98575.50
2023-08-08T13:42:16.500Z,98572.31
2023-08-08T13:44:43.333Z,98568.09
2023-08-08T13:47:10.917Z,98568.28
2023-08-08T13:49:37.871Z,98578.28
2023-08-08T13:52:05.295Z,98566.09
2023-08-08T13:54:32.210Z,98571.19
2023-08-08T13:56:59.431Z,98565.53
2023-08-08T13:59:27.810Z,98571.66
2023-08-08T14:01:54.988Z,98564.09
2023-08-08T14:04:21.956Z,98560.50
2023-08-08T14:06:49.196Z,98563.25
2023-08-08T14:09:18.033Z,98563.31
2023-08-08T14:11:47.082Z,98563.97
2023-08-08T14:14:13.922Z,98563.31
2023-08-08T14:16:41.135Z,98568.41
2023-08-08T14:19:08.124Z,98576.41
2023-08-08T14:21:35.331Z,98572.56
2023-08-08T14:24:03.102Z,98572.84
2023-08-08T14:26:30.246Z,98575.38
2023-08-08T14:28:57.094Z,98568.69
2023-08-08T14:31:24.315Z,98574.63
2023-08-08T14:33:51.182Z,98561.94
2023-08-08T14:36:18.261Z,98569.41
2023-08-08T14:38:46.999Z,98555.56
2023-08-08T14:41:14.300Z,98561.69
2023-08-08T14:43:41.177Z,98558.88
2023-08-08T14:46:08.427Z,98560.16
2023-08-08T14:48:35.250Z,98572.59
2023-08-08T14:51:03.298Z,98572.41
2023-08-08T14:53:30.383Z,98572.66
2023-08-08T14:55:57.577Z,98573.31
2023-08-08T14:58:25.530Z,98573.03
2023-08-08T15:00:54.294Z,98582.13
2023-08-08T15:03:21.375Z,98585.59
2023-08-08T15:05:49.903Z,98595.03
2023-08-08T15:08:17.536Z,98599.31
2023-08-08T15:10:44.344Z,98600.34
2023-08-08T15:13:11.818Z,98593.56
2023-08-08T15:15:38.597Z,98579.31
2023-08-08T15:18:05.830Z,98584.88
2023-08-08T15:20:32.791Z,98573.03
2023-08-08T15:22:59.890Z,98572.00
2023-08-08T15:25:26.669Z,98575.59
2023-08-08T15:27:53.799Z,98577.47
2023-08-08T15:30:20.651Z,98565.44
2023-08-08T15:32:47.806Z,98567.16
2023-08-08T15:35:14.607Z,98572.00
2023-08-08T15:37:41.744Z,98563.78
2023-08-08T15:40:09.211Z,98566.06
2023-08-08T15:42:36.362Z,98563.88
2023-08-08T15:45:03.386Z,98565.53
2023-08-08T15:47:30.599Z,98556.16
2023-08-08T15:49:57.463Z,98553.81
2023-08-08T15:52:24.663Z,98559.72
2023-08-08T15:54:52.297Z,98559.63
2023-08-08T15:57:19.619Z,98561.97
2023-08-08T15:59:46.508Z,98555.81
2023-08-08T16:02:14.745Z,98551.47
2023-08-08T16:04:42.543Z,98554.88
2023-08-08T16:07:10.206Z,98550.72
2023-08-08T16:09:37.018Z,98544.41
2023-08-08T16:12:04.362Z,98549.38
2023-08-08T16:14:31.214Z,98540.53
2023-08-08T16:16:59.975Z,98543.19
2023-08-08T16:19:27.087Z,98537.50
2023-08-08T16:21:54.286Z,98541.75
2023-08-08T16:24:21.070Z,98552.06
2023-08-08T16:26:48.384Z,98549.31
2023-08-08T16:29:15.161Z,98553.28
2023-08-08T16:31:42.687Z,98547.41
2023-08-08T16:34:09.717Z,98553.47
2023-08-08T16:36:38.593Z,98549.22
2023-08-08T16:39:16.773Z,98545.84
2023-08-08T16:41:45.512Z,98550.63
2023-08-08T16:44:12.295Z,98545.56
2023-08-08T16:46:39.425Z,98546.13
2023-08-08T16:49:08.731Z,98544.88
2023-08-08T16:51:36.148Z,98540.66
2023-08-08T16:54:03.007Z,98545.16
2023-08-08T16:56:31.318Z,98540.47
2023-08-08T16:58:58.987Z,98542.75
2023-08-08T17:01:26.323Z,98548.03
2023-08-08T17:03:53.076Z,98540.94
2023-08-08T17:06:20.124Z,98546.16
2023-08-08T17:08:47.048Z,98547.63
2023-08-08T17:11:14.273Z,98541.50
2023-08-08T17:13:41.056Z,98548.03
2023-08-08T17:16:08.117Z,98543.59
2023-08-08T17:18:34.909Z,98545.13
2023-08-08T17:21:02.523Z,98550.50
2023-08-08T17:23:29.407Z,98545.41
2023-08-08T17:25:56.494Z,98543.88
2023-08-08T17:28:23.293Z,98545.78
2023-08-08T17:30:50.418Z,98545.78
2023-08-08T17:33:17.287Z,98547.16
2023-08-08T17:35:46.073Z,98548.78
2023-08-08T17:38:12.869Z,98548.59
2023-08-08T17:40:40.060Z,98545.97
2023-08-08T17:43:07.978Z,98541.72
2023-08-08T17:45:35.650Z,98549.25
2023-08-08T17:48:02.499Z,98540.19
2023-08-08T17:50:29.619Z,98542.25
2023-08-08T17:52:56.420Z,98543.66
2023-08-08T17:55:24.679Z,98539.88
2023-08-08T17:57:51.471Z,98541.78
2023-08-08T18:00:18.748Z,98538.06
2023-08-08T18:02:45.671Z,98544.13
2023-08-08T18:05:14.566Z,98544.31
2023-08-08T18:07:41.489Z,98546.75
2023-08-08T18:10:08.966Z,98549.50
2023-08-08T18:12:35.805Z,98556.63
2023-08-08T18:15:03.873Z,98560.00
2023-08-08T18:17:30.725Z,98563.16
2023-08-08T18:19:57.931Z,98571.91
2023-08-08T18:22:24.817Z,98571.06
2023-08-08T18:24:51.968Z,98567.91
2023-08-08T18:27:18.702Z,98569.78
2023-08-08T18:29:45.921Z,98576.31
2023-08-08T18:32:12.819Z,98571.03
2023-08-08T18:34:39.936Z,98571.38
2023-08-08T18:37:06.760Z,98569.88
2023-08-08T18:39:33.950Z,98568.34
2023-08-08T18:42:01.187Z,98569.06
2023-08-08T18:44:28.478Z,98570.28
2023-08-08T18:46:55.229Z,98575.94
2023-08-08T18:49:22.374Z,98588.63
2023-08-08T18:51:49.164Z,98579.69
2023-08-08T18:54:16.323Z,98588.31
2023-08-08T18:56:43.120Z,98587.63
2023-08-08T18:59:10.189Z,98583.19
2023-08-08T19:01:37.184Z,98588.00
2023-08-08T19:04:04.522Z,98589.06
2023-08-08T19:06:31.374Z,98585.47
2023-08-08T19:08:58.532Z,98585.34
2023-08-08T19:11:25.521Z,98588.75
2023-08-08T19:13:52.670Z,98580.59
2023-08-08T19:16:19.538Z,98573.41
2023-08-08T19:18:46.768Z,98575.81
2023-08-08T19:21:14.127Z,98576.13
2023-08-08T19:23:42.741Z,98570.75
2023-08-08T19:26:09.919Z,98569.53
2023-08-08T19:28:37.353Z,98568.34
2023-08-08T19:31:04.721Z,98565.13
2023-08-08T19:33:32.181Z,98564.06
2023-08-08T19:36:01.370Z,98570.25
2023-08-08T19:38:28.713Z,98560.69
2023-08-08T19:40:55.753Z,98565.00
2023-08-08T19:43:23.003Z,98555.09
2023-08-08T19:45:49.984Z,98559.19
2023-08-08T19:48:17.439Z,98558.16
2023-08-08T19:50:44.381Z,98559.22
2023-08-08T19:53:11.493Z,98568.41
2023-08-08T19:55:38.475Z,98567.75
2023-08-08T19:58:05.781Z,98564.34
2023-08-08T20:00:32.632Z,98572.72
2023-08-08T20:02:59.899Z,98563.16
2023-08-08T20:05:26.813Z,98568.94
2023-08-08T20:07:55.920Z,98572.06
2023-08-08T20:10:23.358Z,98581.75
2023-08-08T20:12:50.699Z,98570.69
2023-08-08T20:15:17.804Z,98576.66
2023-08-08T20:17:45.035Z,98574.09
2023-08-08T20:20:12.007Z,98572.56
2023-08-08T20:22:39.602Z,98587.56
2023-08-08T20:25:07.076Z,98589.78
2023-08-08T20:27:34.102Z,98596.47
2023-08-08T20:30:00.846Z,98598.69
2023-08-08T20:32:27.968Z,98606.16
2023-08-08T20:34:54.811Z,98602.94
2023-08-08T20:37:21.891Z,98606.53
2023-08-08T20:39:48.707Z,98601.59
2023-08-08T20:42:15.801Z,98593.22
2023-08-08T20:44:42.675Z,98600.75
2023-08-08T20:47:09.852Z,98608.75
2023-08-08T20:49:36.792Z,98599.31
2023-08-08T20:52:03.962Z,98603.75
2023-08-08T20:54:30.877Z,98598.47
2023-08-08T20:56:59.040Z,98600.53
2023-08-08T20:59:26.748Z,98592.16
2023-08-08T21:01:54.352Z,98588.25
2023-08-08T21:04:22.238Z,98584.84
2023-08-08T21:06:49.389Z,98577.16
2023-08-08T21:09:16.308Z,98575.09
2023-08-08T21:11:43.535Z,98574.75
2023-08-08T21:14:10.420Z,98580.38
2023-08-08T21:16:37.576Z,98602.91
2023-08-08T21:19:04.475Z,98618.56
2023-08-08T21:21:31.662Z,98614.78
2023-08-08T21:23:58.459Z,98608.69
2023-08-08T21:26:30.128Z,98593.16
2023-08-08T21:29:05.780Z,98592.31
2023-08-08T21:31:33.274Z,98590.44
2023-08-08T21:34:00.127Z,98591.28
2023-08-08T21:36:27.205Z,98590.78
2023-08-08T21:38:54.014Z,98584.31
2023-08-08T21:41:21.110Z,98586.19
2023-08-08T21:43:48.181Z,98588.22
2023-08-08T21:46:15.358Z,98580.91
2023-08-08T21:48:42.142Z,98582.94
2023-08-08T21:51:11.374Z,98588.19
2023-08-08T21:53:38.549Z,98581.75
2023-08-08T21:56:05.875Z,98586.50
2023-08-08T21:58:33.304Z,98583.28
2023-08-08T22:01:00.440Z,98579.50
2023-08-08T22:03:27.375Z,98583.97
2023-08-08T22:05:54.449Z,98580.72
2023-08-08T22:08:21.183Z,98577.66
2023-08-08T22:10:48.268Z,98579.50
2023-08-08T22:13:15.594Z,98585.13
2023-08-08T22:15:42.696Z,98584.09
2023-08-08T22:18:22.115Z,98581.53
2023-08-08T22:20:49.342Z,98579.84
2023-08-08T22:23:20.274Z,98582.19
2023-08-08T22:25:50.002Z,98582.22
2023-08-08T22:28:17.773Z,98577.25
2023-08-08T22:30:44.882Z,98576.06
2023-08-08T22:33:11.970Z,98575.69
2023-08-08T22:35:39.053Z,98582.34
2023-08-08T22:38:05.929Z,98575.03
2023-08-08T22:40:32.999Z,98577.22
2023-08-08T22:42:59.792Z,98589.13
2023-08-08T22:47:55.910Z,98585.56
2023-08-08T22:50:24.655Z,98577.88
2023-08-08T22:52:51.575Z,98575.66
2023-08-08T22:55:18.706Z,98585.69
2023-08-08T22:57:45.478Z,98582.28
2023-08-08T23:00:13.622Z,98588.03
2023-08-08T23:02:41.097Z,98578.84
2023-08-08T23:05:08.898Z,98587.19
2023-08-08T23:07:35.656Z,98589.03
2023-08-08T23:10:02.721Z,98585.44
2023-08-08T23:12:29.536Z,98579.31
2023-08-08T23:14:56.683Z,98584.09
2023-08-08T23:17:23.486Z,98586.13
2023-08-08T23:19:50.846Z,98579.81
2023-08-08T23:22:17.611Z,98590.34
2023-08-08T23:24:44.789Z,98581.50
2023-08-08T23:27:11.742Z,98590.34
2023-08-08T23:29:38.990Z,98588.81
2023-08-08T23:32:05.884Z,98587.94
2023-08-08T23:34:33.040Z,98587.78
2023-08-08T23:37:00.534Z,98591.53
2023-08-08T23:39:28.481Z,98583.91
2023-08-08T23:41:55.236Z,98590.84
2023-08-08T23:44:22.305Z,98592.03
2023-08-08T23:46:49.164Z,98587.28
2023-08-08T23:49:16.251Z,98585.91
2023-08-08T23:51:45.682Z,98591.00
2023-08-08T23:54:13.338Z,98586.91
2023-08-08T23:56:41.758Z,98592.03
2023-08-08T23:59:09.433Z,98586.06
